1OH5 weather

Minit-Men Inc Heliport
San Marghareta, Ohio, United States

Public forecast

Using degrees Fahrenheit for public forecast. Weather courtesy of forecast.io.

METAR (pilot weather report)

Closest report is The Ohio State University Airport - Don Scott Field, 5.0 nm (9.2 km) N. Retrieved 2019/05/20 23:53 UTC (57 minutes ago):

KOSU 202353Z 33009KT 10SM BKN041 14/09 A3006 RMK AO2 SLP176 T01440089 10189 20144 51015

TAF (pilot weather forecast)

Forecast is more than 12 hours old.

Closest forecast is John Glenn Columbus International Airport, 8.9 nm (16.5 km) E. Retrieved 2019/05/20 00:36 UTC (1 day ago):

TAF KCMH 202333Z 2100/2124 30011KT P6SM SCT045 BKN250 TEMPO 2100/2101 BKN045 FM210300 36004KT P6SM BKN250 FM211200 07008KT P6SM BKN070 FM211700 06009KT P6SM SCT100 BKN250